sensor_id;sensor_type;location;lat;lon;timestamp;pressure;altitude;pressure_sealevel;temperature
15709;BMP180;7954;51.914;8.420;2023-05-10T00:01:34;99427.25;;;22.28
15709;BMP180;7954;51.914;8.420;2023-05-10T00:04:02;99420.28;;;22.27
15709;BMP180;7954;51.914;8.420;2023-05-10T00:06:30;99414.81;;;22.24
15709;BMP180;7954;51.914;8.420;2023-05-10T00:08:59;99418.47;;;22.26
15709;BMP180;7954;51.914;8.420;2023-05-10T00:11:26;99422.84;;;22.27
15709;BMP180;7954;51.914;8.420;2023-05-10T00:13:54;99411.47;;;22.25
15709;BMP180;7954;51.914;8.420;2023-05-10T00:16:24;99416.63;;;22.25
15709;BMP180;7954;51.914;8.420;2023-05-10T00:18:52;99418.66;;;22.27
15709;BMP180;7954;51.914;8.420;2023-05-10T00:21:20;99416.06;;;22.27
15709;BMP180;7954;51.914;8.420;2023-05-10T00:23:47;99410.75;;;22.26
15709;BMP180;7954;51.914;8.420;2023-05-10T00:26:15;99415.88;;;22.26
15709;BMP180;7954;51.914;8.420;2023-05-10T00:28:45;99406.34;;;22.25
15709;BMP180;7954;51.914;8.420;2023-05-10T00:31:13;99400.44;;;22.26
15709;BMP180;7954;51.914;8.420;2023-05-10T00:33:42;99396.94;;;22.25
15709;BMP180;7954;51.914;8.420;2023-05-10T00:36:10;99403.03;;;22.26
15709;BMP180;7954;51.914;8.420;2023-05-10T00:38:39;99405.78;;;22.27
15709;BMP180;7954;51.914;8.420;2023-05-10T00:41:06;99393.06;;;22.29
15709;BMP180;7954;51.914;8.420;2023-05-10T00:43:34;99410.34;;;22.30
15709;BMP180;7954;51.914;8.420;2023-05-10T00:46:03;99398.78;;;22.26
15709;BMP180;7954;51.914;8.420;2023-05-10T00:48:31;99399.13;;;22.29
15709;BMP180;7954;51.914;8.420;2023-05-10T00:51:01;99394.56;;;22.27
15709;BMP180;7954;51.914;8.420;2023-05-10T00:53:31;99406.34;;;22.25
15709;BMP180;7954;51.914;8.420;2023-05-10T00:55:59;99407.97;;;22.24
15709;BMP180;7954;51.914;8.420;2023-05-10T00:58:28;99402.53;;;22.21
15709;BMP180;7954;51.914;8.420;2023-05-10T01:00:57;99393.91;;;22.21
15709;BMP180;7954;51.914;8.420;2023-05-10T01:03:26;99393.44;;;22.16
15709;BMP180;7954;51.914;8.420;2023-05-10T01:05:54;99389.97;;;22.16
15709;BMP180;7954;51.914;8.420;2023-05-10T01:08:24;99384.53;;;22.21
15709;BMP180;7954;51.914;8.420;2023-05-10T01:10:53;99387.25;;;22.23
15709;BMP180;7954;51.914;8.420;2023-05-10T01:13:30;99383.78;;;22.22
15709;BMP180;7954;51.914;8.420;2023-05-10T01:15:59;99397.53;;;22.23
15709;BMP180;7954;51.914;8.420;2023-05-10T01:18:29;99393.13;;;22.22
15709;BMP180;7954;51.914;8.420;2023-05-10T01:21:04;99398.72;;;22.18
15709;BMP180;7954;51.914;8.420;2023-05-10T01:23:59;99404.94;;;22.20
15709;BMP180;7954;51.914;8.420;2023-05-10T01:27:02;99396.38;;;22.04
15709;BMP180;7954;51.914;8.420;2023-05-10T01:32:48;99398.59;;;21.69
15709;BMP180;7954;51.914;8.420;2023-05-10T01:35:25;99411.53;;;21.62
15709;BMP180;7954;51.914;8.420;2023-05-10T01:38:00;99407.72;;;21.58
15709;BMP180;7954;51.914;8.420;2023-05-10T01:40:35;99403.25;;;21.49
15709;BMP180;7954;51.914;8.420;2023-05-10T01:43:12;99405.81;;;21.33
15709;BMP180;7954;51.914;8.420;2023-05-10T01:45:49;99406.47;;;21.39
15709;BMP180;7954;51.914;8.420;2023-05-10T01:48:20;99401.66;;;21.27
15709;BMP180;7954;51.914;8.420;2023-05-10T01:50:51;99419.31;;;21.09
15709;BMP180;7954;51.914;8.420;2023-05-10T01:53:20;99413.19;;;21.00
15709;BMP180;7954;51.914;8.420;2023-05-10T01:55:52;99412.03;;;20.89
15709;BMP180;7954;51.914;8.420;2023-05-10T01:58:32;99398.00;;;20.79
15709;BMP180;7954;51.914;8.420;2023-05-10T02:01:03;99413.34;;;20.86
15709;BMP180;7954;51.914;8.420;2023-05-10T02:03:35;99412.34;;;20.77
15709;BMP180;7954;51.914;8.420;2023-05-10T02:06:05;99417.50;;;20.77
15709;BMP180;7954;51.914;8.420;2023-05-10T02:08:35;99409.13;;;20.64
15709;BMP180;7954;51.914;8.420;2023-05-10T02:11:04;99428.91;;;20.50
15709;BMP180;7954;51.914;8.420;2023-05-10T02:13:34;99420.50;;;20.44
15709;BMP180;7954;51.914;8.420;2023-05-10T02:16:05;99427.97;;;20.49
15709;BMP180;7954;51.914;8.420;2023-05-10T02:18:35;99420.25;;;20.49
15709;BMP180;7954;51.914;8.420;2023-05-10T02:21:04;99429.50;;;20.40
15709;BMP180;7954;51.914;8.420;2023-05-10T02:23:32;99433.34;;;20.44
15709;BMP180;7954;51.914;8.420;2023-05-10T02:26:02;99424.78;;;20.36
15709;BMP180;7954;51.914;8.420;2023-05-10T02:28:32;99427.53;;;20.38
15709;BMP180;7954;51.914;8.420;2023-05-10T02:31:01;99437.22;;;20.40
15709;BMP180;7954;51.914;8.420;2023-05-10T02:33:30;99418.28;;;20.47
15709;BMP180;7954;51.914;8.420;2023-05-10T02:36:01;99425.81;;;20.45
15709;BMP180;7954;51.914;8.420;2023-05-10T02:38:30;99419.53;;;20.50
15709;BMP180;7954;51.914;8.420;2023-05-10T02:41:01;99425.41;;;20.49
15709;BMP180;7954;51.914;8.420;2023-05-10T02:43:30;99427.97;;;20.49
15709;BMP180;7954;51.914;8.420;2023-05-10T02:45:58;99426.81;;;20.54
15709;BMP180;7954;51.914;8.420;2023-05-10T02:48:27;99424.34;;;20.47
15709;BMP180;7954;51.914;8.420;2023-05-10T02:51:00;99426.31;;;20.50
15709;BMP180;7954;51.914;8.420;2023-05-10T02:53:34;99430.47;;;20.56
15709;BMP180;7954;51.914;8.420;2023-05-10T02:56:05;99421.13;;;20.57
15709;BMP180;7954;51.914;8.420;2023-05-10T02:58:37;99428.22;;;20.59
15709;BMP180;7954;51.914;8.420;2023-05-10T03:01:05;99427.22;;;20.50
15709;BMP180;7954;51.914;8.420;2023-05-10T03:03:34;99428.63;;;20.40
15709;BMP180;7954;51.914;8.420;2023-05-10T03:06:02;99428.66;;;20.33
15709;BMP180;7954;51.914;8.420;2023-05-10T03:08:33;99427.28;;;20.21
15709;BMP180;7954;51.914;8.420;2023-05-10T03:11:13;99435.25;;;20.08
15709;BMP180;7954;51.914;8.420;2023-05-10T03:13:48;99439.97;;;20.12
15709;BMP180;7954;51.914;8.420;2023-05-10T03:16:25;99431.72;;;20.15
15709;BMP180;7954;51.914;8.420;2023-05-10T03:19:01;99438.84;;;20.17
15709;BMP180;7954;51.914;8.420;2023-05-10T03:21:29;99438.91;;;20.10
15709;BMP180;7954;51.914;8.420;2023-05-10T03:24:06;99448.78;;;20.07
15709;BMP180;7954;51.914;8.420;2023-05-10T03:26:36;99436.28;;;20.17
15709;BMP180;7954;51.914;8.420;2023-05-10T03:29:05;99446.91;;;20.20
15709;BMP180;7954;51.914;8.420;2023-05-10T03:31:34;99449.16;;;20.10
15709;BMP180;7954;51.914;8.420;2023-05-10T03:34:02;99445.03;;;19.97
15709;BMP180;7954;51.914;8.420;2023-05-10T03:36:30;99451.81;;;19.97
15709;BMP180;7954;51.914;8.420;2023-05-10T03:39:00;99447.13;;;19.79
15709;BMP180;7954;51.914;8.420;2023-05-10T03:41:29;99456.31;;;19.70
15709;BMP180;7954;51.914;8.420;2023-05-10T03:43:57;99462.00;;;19.67
15709;BMP180;7954;51.914;8.420;2023-05-10T03:46:25;99466.25;;;19.67
15709;BMP180;7954;51.914;8.420;2023-05-10T03:48:53;99459.34;;;19.52
15709;BMP180;7954;51.914;8.420;2023-05-10T03:51:24;99470.06;;;19.27
15709;BMP180;7954;51.914;8.420;2023-05-10T03:53:54;99482.88;;;19.20
15709;BMP180;7954;51.914;8.420;2023-05-10T03:56:24;99492.75;;;19.17
15709;BMP180;7954;51.914;8.420;2023-05-10T03:58:52;99479.53;;;19.28
15709;BMP180;7954;51.914;8.420;2023-05-10T04:01:20;99479.75;;;19.23
15709;BMP180;7954;51.914;8.420;2023-05-10T04:03:47;99487.66;;;19.17
15709;BMP180;7954;51.914;8.420;2023-05-10T04:06:17;99500.81;;;18.78
15709;BMP180;7954;51.914;8.420;2023-05-10T04:08:45;99493.88;;;18.84
15709;BMP180;7954;51.914;8.420;2023-05-10T04:11:12;99499.00;;;18.91
15709;BMP180;7954;51.914;8.420;2023-05-10T04:13:42;99495.50;;;19.05
15709;BMP180;7954;51.914;8.420;2023-05-10T04:16:10;99510.69;;;19.17
15709;BMP180;7954;51.914;8.420;2023-05-10T04:18:38;99503.34;;;19.20
15709;BMP180;7954;51.914;8.420;2023-05-10T04:21:11;99503.91;;;19.25
15709;BMP180;7954;51.914;8.420;2023-05-10T04:23:38;99514.69;;;19.22
15709;BMP180;7954;51.914;8.420;2023-05-10T04:26:07;99510.47;;;19.16
15709;BMP180;7954;51.914;8.420;2023-05-10T04:28:35;99518.16;;;19.23
15709;BMP180;7954;51.914;8.420;2023-05-10T04:31:06;99514.34;;;19.12
15709;BMP180;7954;51.914;8.420;2023-05-10T04:33:36;99521.47;;;19.08
15709;BMP180;7954;51.914;8.420;2023-05-10T04:36:05;99520.19;;;19.11
15709;BMP180;7954;51.914;8.420;2023-05-10T04:38:33;99524.94;;;19.01
15709;BMP180;7954;51.914;8.420;2023-05-10T04:41:05;99523.13;;;19.07
15709;BMP180;7954;51.914;8.420;2023-05-10T04:43:34;99529.50;;;19.11
15709;BMP180;7954;51.914;8.420;2023-05-10T04:46:04;99525.09;;;18.96
15709;BMP180;7954;51.914;8.420;2023-05-10T04:48:32;99528.59;;;19.10
15709;BMP180;7954;51.914;8.420;2023-05-10T04:51:01;99529.16;;;19.15
15709;BMP180;7954;51.914;8.420;2023-05-10T04:53:30;99538.47;;;18.86
15709;BMP180;7954;51.914;8.420;2023-05-10T04:55:58;99536.22;;;19.03
15709;BMP180;7954;51.914;8.420;2023-05-10T04:58:26;99541.03;;;19.07
15709;BMP180;7954;51.914;8.420;2023-05-10T05:00:54;99547.78;;;19.00
15709;BMP180;7954;51.914;8.420;2023-05-10T05:03:23;99559.28;;;18.96
15709;BMP180;7954;51.914;8.420;2023-05-10T05:05:52;99555.63;;;19.01
15709;BMP180;7954;51.914;8.420;2023-05-10T05:08:20;99548.34;;;19.11
15709;BMP180;7954;51.914;8.420;2023-05-10T05:10:49;99559.84;;;19.08
15709;BMP180;7954;51.914;8.420;2023-05-10T05:13:18;99570.78;;;18.93
15709;BMP180;7954;51.914;8.420;2023-05-10T05:15:46;99574.44;;;18.88
15709;BMP180;7954;51.914;8.420;2023-05-10T05:18:15;99571.72;;;18.86
15709;BMP180;7954;51.914;8.420;2023-05-10T05:20:44;99568.63;;;18.75
15709;BMP180;7954;51.914;8.420;2023-05-10T05:23:12;99572.25;;;18.91
15709;BMP180;7954;51.914;8.420;2023-05-10T05:25:40;99574.47;;;19.09
15709;BMP180;7954;51.914;8.420;2023-05-10T05:28:08;99583.06;;;19.16
15709;BMP180;7954;51.914;8.420;2023-05-10T05:30:36;99587.44;;;19.10
15709;BMP180;7954;51.914;8.420;2023-05-10T05:33:06;99585.41;;;19.01
15709;BMP180;7954;51.914;8.420;2023-05-10T05:35:34;99593.84;;;19.07
15709;BMP180;7954;51.914;8.420;2023-05-10T05:38:04;99596.72;;;18.96
15709;BMP180;7954;51.914;8.420;2023-05-10T05:40:32;99594.00;;;19.01
15709;BMP180;7954;51.914;8.420;2023-05-10T05:43:00;99596.03;;;18.90
15709;BMP180;7954;51.914;8.420;2023-05-10T05:45:28;99604.25;;;18.87
15709;BMP180;7954;51.914;8.420;2023-05-10T05:47:56;99598.75;;;18.84
15709;BMP180;7954;51.914;8.420;2023-05-10T05:50:24;99611.72;;;18.93
15709;BMP180;7954;51.914;8.420;2023-05-10T05:52:52;99609.38;;;18.87
15709;BMP180;7954;51.914;8.420;2023-05-10T05:55:22;99611.53;;;18.98
15709;BMP180;7954;51.914;8.420;2023-05-10T05:57:50;99618.13;;;19.03
15709;BMP180;7954;51.914;8.420;2023-05-10T06:00:21;99617.41;;;18.97
15709;BMP180;7954;51.914;8.420;2023-05-10T06:02:50;99612.28;;;19.04
15709;BMP180;7954;51.914;8.420;2023-05-10T06:05:19;99620.91;;;19.12
15709;BMP180;7954;51.914;8.420;2023-05-10T06:07:47;99627.28;;;19.08
15709;BMP180;7954;51.914;8.420;2023-05-10T06:10:18;99633.84;;;18.99
15709;BMP180;7954;51.914;8.420;2023-05-10T06:12:48;99624.69;;;18.94
15709;BMP180;7954;51.914;8.420;2023-05-10T06:15:16;99632.81;;;19.11
15709;BMP180;7954;51.914;8.420;2023-05-10T06:17:47;99634.78;;;19.21
15709;BMP180;7954;51.914;8.420;2023-05-10T06:20:17;99630.41;;;19.34
15709;BMP180;7954;51.914;8.420;2023-05-10T06:22:45;99628.03;;;19.21
15709;BMP180;7954;51.914;8.420;2023-05-10T06:25:14;99634.25;;;19.30
15709;BMP180;7954;51.914;8.420;2023-05-10T06:27:44;99636.81;;;19.30
15709;BMP180;7954;51.914;8.420;2023-05-10T06:30:20;99640.47;;;19.32
15709;BMP180;7954;51.914;8.420;2023-05-10T06:32:50;99655.06;;;19.33
15709;BMP180;7954;51.914;8.420;2023-05-10T06:35:20;99648.16;;;19.32
15709;BMP180;7954;51.914;8.420;2023-05-10T06:37:48;99655.81;;;19.39
15709;BMP180;7954;51.914;8.420;2023-05-10T06:40:17;99664.41;;;19.46
15709;BMP180;7954;51.914;8.420;2023-05-10T06:42:45;99654.00;;;19.52
15709;BMP180;7954;51.914;8.420;2023-05-10T06:45:13;99659.47;;;19.55
15709;BMP180;7954;51.914;8.420;2023-05-10T06:47:43;99664.94;;;19.65
15709;BMP180;7954;51.914;8.420;2023-05-10T06:50:12;99679.94;;;19.76
15709;BMP180;7954;51.914;8.420;2023-05-10T06:52:40;99678.81;;;19.74
15709;BMP180;7954;51.914;8.420;2023-05-10T06:55:09;99668.94;;;19.77
15709;BMP180;7954;51.914;8.420;2023-05-10T06:57:38;99657.97;;;19.92
15709;BMP180;7954;51.914;8.420;2023-05-10T07:00:06;99665.66;;;19.92
15709;BMP180;7954;51.914;8.420;2023-05-10T07:02:36;99677.31;;;19.90
15709;BMP180;7954;51.914;8.420;2023-05-10T07:05:07;99670.41;;;19.96
15709;BMP180;7954;51.914;8.420;2023-05-10T07:07:35;99670.34;;;20.09
15709;BMP180;7954;51.914;8.420;2023-05-10T07:10:04;99683.88;;;20.08
15709;BMP180;7954;51.914;8.420;2023-05-10T07:12:32;99668.09;;;20.26
15709;BMP180;7954;51.914;8.420;2023-05-10T07:15:00;99670.75;;;20.49
15709;BMP180;7954;51.914;8.420;2023-05-10T07:17:29;99670.25;;;20.66
15709;BMP180;7954;51.914;8.420;2023-05-10T07:19:57;99674.75;;;20.90
15709;BMP180;7954;51.914;8.420;2023-05-10T07:22:26;99670.19;;;21.10
15709;BMP180;7954;51.914;8.420;2023-05-10T07:24:54;99672.53;;;21.15
15709;BMP180;7954;51.914;8.420;2023-05-10T07:27:22;99662.25;;;21.15
15709;BMP180;7954;51.914;8.420;2023-05-10T07:29:50;99675.94;;;21.23
15709;BMP180;7954;51.914;8.420;2023-05-10T07:32:18;99668.53;;;21.32
15709;BMP180;7954;51.914;8.420;2023-05-10T07:34:46;99673.09;;;21.35
15709;BMP180;7954;51.914;8.420;2023-05-10T07:37:15;99664.16;;;21.32
15709;BMP180;7954;51.914;8.420;2023-05-10T07:39:45;99681.31;;;21.39
15709;BMP180;7954;51.914;8.420;2023-05-10T07:42:14;99677.56;;;21.29
15709;BMP180;7954;51.914;8.420;2023-05-10T07:44:41;99671.88;;;21.32
15709;BMP180;7954;51.914;8.420;2023-05-10T07:47:12;99675.50;;;21.33
15709;BMP180;7954;51.914;8.420;2023-05-10T07:49:40;99678.06;;;21.33
15709;BMP180;7954;51.914;8.420;2023-05-10T07:52:08;99671.75;;;21.45
15709;BMP180;7954;51.914;8.420;2023-05-10T07:54:36;99671.81;;;21.61
15709;BMP180;7954;51.914;8.420;2023-05-10T07:57:05;99681.97;;;21.90
15709;BMP180;7954;51.914;8.420;2023-05-10T07:59:33;99671.03;;;22.15
15709;BMP180;7954;51.914;8.420;2023-05-10T08:02:01;99672.38;;;22.11
15709;BMP180;7954;51.914;8.420;2023-05-10T08:04:29;99672.38;;;22.27
15709;BMP180;7954;51.914;8.420;2023-05-10T08:06:57;99665.81;;;22.53
15709;BMP180;7954;51.914;8.420;2023-05-10T08:09:25;99670.00;;;22.67
15709;BMP180;7954;51.914;8.420;2023-05-10T08:11:53;99672.03;;;22.55
15709;BMP180;7954;51.914;8.420;2023-05-10T08:14:23;99666.88;;;22.24
15709;BMP180;7954;51.914;8.420;2023-05-10T08:16:51;99686.13;;;21.97
15709;BMP180;7954;51.914;8.420;2023-05-10T08:19:19;99682.59;;;21.65
15709;BMP180;7954;51.914;8.420;2023-05-10T08:21:49;99686.22;;;21.52
15709;BMP180;7954;51.914;8.420;2023-05-10T08:24:17;99689.38;;;21.42
15709;BMP180;7954;51.914;8.420;2023-05-10T08:26:45;99690.72;;;21.39
15709;BMP180;7954;51.914;8.420;2023-05-10T08:29:15;99703.47;;;21.53
15709;BMP180;7954;51.914;8.420;2023-05-10T08:31:47;99691.06;;;21.64
15709;BMP180;7954;51.914;8.420;2023-05-10T08:34:15;99695.63;;;21.67
15709;BMP180;7954;51.914;8.420;2023-05-10T08:36:42;99699.63;;;21.87
15709;BMP180;7954;51.914;8.420;2023-05-10T08:39:11;99712.72;;;21.66
15709;BMP180;7954;51.914;8.420;2023-05-10T08:41:53;99707.72;;;21.45
15709;BMP180;7954;51.914;8.420;2023-05-10T08:44:23;99709.88;;;21.49
15709;BMP180;7954;51.914;8.420;2023-05-10T08:46:53;99712.84;;;21.45
15709;BMP180;7954;51.914;8.420;2023-05-10T08:49:22;99712.56;;;21.80
15709;BMP180;7954;51.914;8.420;2023-05-10T08:51:54;99716.16;;;21.89
15709;BMP180;7954;51.914;8.420;2023-05-10T08:54:22;99712.75;;;21.97
15709;BMP180;7954;51.914;8.420;2023-05-10T08:56:50;99717.94;;;22.12
15709;BMP180;7954;51.914;8.420;2023-05-10T08:59:19;99719.25;;;22.09
15709;BMP180;7954;51.914;8.420;2023-05-10T09:01:48;99716.19;;;22.20
15709;BMP180;7954;51.914;8.420;2023-05-10T09:04:19;99720.72;;;22.45
15709;BMP180;7954;51.914;8.420;2023-05-10T09:06:47;99717.09;;;22.66
15709;BMP180;7954;51.914;8.420;2023-05-10T09:09:15;99720.91;;;22.70
15709;BMP180;7954;51.914;8.420;2023-05-10T09:11:44;99724.81;;;22.82
15709;BMP180;7954;51.914;8.420;2023-05-10T09:14:15;99724.47;;;22.94
15709;BMP180;7954;51.914;8.420;2023-05-10T09:16:42;99728.09;;;23.12
15709;BMP180;7954;51.914;8.420;2023-05-10T09:19:10;99729.00;;;23.12
15709;BMP180;7954;51.914;8.420;2023-05-10T09:21:39;99725.00;;;23.23
15709;BMP180;7954;51.914;8.420;2023-05-10T09:24:08;99725.25;;;23.17
15709;BMP180;7954;51.914;8.420;2023-05-10T09:26:45;99728.84;;;23.11
15709;BMP180;7954;51.914;8.420;2023-05-10T09:29:14;99733.28;;;22.96
15709;BMP180;7954;51.914;8.420;2023-05-10T09:31:45;99740.97;;;23.12
15709;BMP180;7954;51.914;8.420;2023-05-10T09:34:18;99729.38;;;23.71
15709;BMP180;7954;51.914;8.420;2023-05-10T09:36:53;99714.69;;;24.36
15709;BMP180;7954;51.914;8.420;2023-05-10T09:39:30;99714.00;;;24.54
15709;BMP180;7954;51.914;8.420;2023-05-10T09:41:59;99715.00;;;24.31
15709;BMP180;7954;51.914;8.420;2023-05-10T09:44:27;99719.16;;;24.46
15709;BMP180;7954;51.914;8.420;2023-05-10T09:46:57;99733.72;;;24.54
15709;BMP180;7954;51.914;8.420;2023-05-10T09:49:25;99719.00;;;24.61
15709;BMP180;7954;51.914;8.420;2023-05-10T09:52:10;99719.47;;;24.74
15709;BMP180;7954;51.914;8.420;2023-05-10T09:54:45;99720.66;;;24.94
15709;BMP180;7954;51.914;8.420;2023-05-10T09:57:20;99698.47;;;25.22
15709;BMP180;7954;51.914;8.420;2023-05-10T09:59:49;99710.00;;;25.33
15709;BMP180;7954;51.914;8.420;2023-05-10T10:02:17;99717.19;;;25.11
15709;BMP180;7954;51.914;8.420;2023-05-10T10:04:49;99707.91;;;24.79
15709;BMP180;7954;51.914;8.420;2023-05-10T10:07:23;99712.16;;;24.95
15709;BMP180;7954;51.914;8.420;2023-05-10T10:09:54;99707.88;;;24.96
15709;BMP180;7954;51.914;8.420;2023-05-10T10:12:23;99706.03;;;25.37
15709;BMP180;7954;51.914;8.420;2023-05-10T10:14:51;99702.47;;;25.53
15709;BMP180;7954;51.914;8.420;2023-05-10T10:17:19;99709.00;;;25.58
15709;BMP180;7954;51.914;8.420;2023-05-10T10:19:48;99703.31;;;25.88
15709;BMP180;7954;51.914;8.420;2023-05-10T10:22:17;99694.59;;;25.87
15709;BMP180;7954;51.914;8.420;2023-05-10T10:24:46;99700.38;;;25.93
15709;BMP180;7954;51.914;8.420;2023-05-10T10:27:28;99686.09;;;25.88
15709;BMP180;7954;51.914;8.420;2023-05-10T10:30:04;99710.78;;;25.76
15709;BMP180;7954;51.914;8.420;2023-05-10T10:32:46;99700.19;;;25.56
15709;BMP180;7954;51.914;8.420;2023-05-10T10:35:18;99698.31;;;25.72
15709;BMP180;7954;51.914;8.420;2023-05-10T10:37:47;99695.56;;;25.71
15709;BMP180;7954;51.914;8.420;2023-05-10T10:40:27;99694.75;;;25.45
15709;BMP180;7954;51.914;8.420;2023-05-10T10:43:21;99702.13;;;25.24
15709;BMP180;7954;51.914;8.420;2023-05-10T10:46:10;99704.84;;;25.17
15709;BMP180;7954;51.914;8.420;2023-05-10T10:48:39;99703.50;;;25.20
15709;BMP180;7954;51.914;8.420;2023-05-10T10:51:07;99708.31;;;25.26
15709;BMP180;7954;51.914;8.420;2023-05-10T10:53:39;99702.09;;;25.40
15709;BMP180;7954;51.914;8.420;2023-05-10T10:56:12;99687.94;;;25.81
15709;BMP180;7954;51.914;8.420;2023-05-10T10:58:49;99694.78;;;26.07
15709;BMP180;7954;51.914;8.420;2023-05-10T11:01:20;99691.25;;;26.33
15709;BMP180;7954;51.914;8.420;2023-05-10T11:04:17;99687.34;;;26.73
15709;BMP180;7954;51.914;8.420;2023-05-10T11:06:46;99691.19;;;26.87
15709;BMP180;7954;51.914;8.420;2023-05-10T11:09:17;99693.50;;;26.84
15709;BMP180;7954;51.914;8.420;2023-05-10T11:11:53;99693.34;;;26.46
15709;BMP180;7954;51.914;8.420;2023-05-10T11:14:25;99695.47;;;26.23
15709;BMP180;7954;51.914;8.420;2023-05-10T11:16:53;99705.44;;;25.83
15709;BMP180;7954;51.914;8.420;2023-05-10T11:19:21;99714.47;;;25.61
15709;BMP180;7954;51.914;8.420;2023-05-10T11:24:39;99720.25;;;25.59
15709;BMP180;7954;51.914;8.420;2023-05-10T11:27:11;99714.47;;;25.61
15709;BMP180;7954;51.914;8.420;2023-05-10T11:29:43;99715.69;;;25.73
15709;BMP180;7954;51.914;8.420;2023-05-10T11:32:12;99707.34;;;26.02
15709;BMP180;7954;51.914;8.420;2023-05-10T11:34:40;99699.03;;;26.15
15709;BMP180;7954;51.914;8.420;2023-05-10T11:37:08;99705.81;;;25.96
15709;BMP180;7954;51.914;8.420;2023-05-10T11:39:37;99708.19;;;25.76
15709;BMP180;7954;51.914;8.420;2023-05-10T11:42:05;99722.41;;;25.54
15709;BMP180;7954;51.914;8.420;2023-05-10T11:44:37;99740.13;;;25.25
15709;BMP180;7954;51.914;8.420;2023-05-10T11:47:05;99763.72;;;24.36
15709;BMP180;7954;51.914;8.420;2023-05-10T11:49:34;99806.59;;;21.49
15709;BMP180;7954;51.914;8.420;2023-05-10T11:52:05;99833.31;;;19.94
15709;BMP180;7954;51.914;8.420;2023-05-10T11:54:34;99843.75;;;20.02
15709;BMP180;7954;51.914;8.420;2023-05-10T11:57:04;99825.16;;;20.67
15709;BMP180;7954;51.914;8.420;2023-05-10T11:59:32;99815.63;;;20.59
15709;BMP180;7954;51.914;8.420;2023-05-10T12:02:02;99813.94;;;20.80
15709;BMP180;7954;51.914;8.420;2023-05-10T12:04:32;99818.66;;;20.91
15709;BMP180;7954;51.914;8.420;2023-05-10T12:07:00;99821.22;;;20.98
15709;BMP180;7954;51.914;8.420;2023-05-10T12:09:29;99810.84;;;21.12
15709;BMP180;7954;51.914;8.420;2023-05-10T12:12:09;99815.03;;;21.19
15709;BMP180;7954;51.914;8.420;2023-05-10T12:14:37;99814.22;;;21.33
15709;BMP180;7954;51.914;8.420;2023-05-10T12:17:11;99813.31;;;21.33
15709;BMP180;7954;51.914;8.420;2023-05-10T12:19:40;99819.09;;;21.53
15709;BMP180;7954;51.914;8.420;2023-05-10T12:22:08;99809.28;;;21.64
15709;BMP180;7954;51.914;8.420;2023-05-10T12:24:37;99812.09;;;21.81
15709;BMP180;7954;51.914;8.420;2023-05-10T12:27:08;99806.13;;;21.89
15709;BMP180;7954;51.914;8.420;2023-05-10T12:29:36;99810.34;;;22.11
15709;BMP180;7954;51.914;8.420;2023-05-10T12:32:09;99814.56;;;22.33
15709;BMP180;7954;51.914;8.420;2023-05-10T12:34:38;99821.66;;;22.58
15709;BMP180;7954;51.914;8.420;2023-05-10T12:37:08;99808.13;;;22.82
15709;BMP180;7954;51.914;8.420;2023-05-10T12:39:40;99817.53;;;23.13
15709;BMP180;7954;51.914;8.420;2023-05-10T12:42:10;99817.19;;;23.49
15709;BMP180;7954;51.914;8.420;2023-05-10T12:44:39;99798.47;;;23.67
15709;BMP180;7954;51.914;8.420;2023-05-10T12:47:08;99811.72;;;23.94
15709;BMP180;7954;51.914;8.420;2023-05-10T12:49:39;99809.59;;;24.39
15709;BMP180;7954;51.914;8.420;2023-05-10T12:52:07;99794.69;;;24.77
15709;BMP180;7954;51.914;8.420;2023-05-10T12:54:35;99801.66;;;24.69
15709;BMP180;7954;51.914;8.420;2023-05-10T12:57:03;99811.47;;;24.40
15709;BMP180;7954;51.914;8.420;2023-05-10T12:59:31;99815.44;;;24.12
15709;BMP180;7954;51.914;8.420;2023-05-10T13:02:02;99812.47;;;23.93
15709;BMP180;7954;51.914;8.420;2023-05-10T13:04:34;99824.50;;;23.77
15709;BMP180;7954;51.914;8.420;2023-05-10T13:07:04;99824.47;;;23.53
15709;BMP180;7954;51.914;8.420;2023-05-10T13:09:32;99828.13;;;23.31
15709;BMP180;7954;51.914;8.420;2023-05-10T13:12:02;99837.19;;;23.12
15709;BMP180;7954;51.914;8.420;2023-05-10T13:14:30;99838.75;;;22.72
15709;BMP180;7954;51.914;8.420;2023-05-10T13:16:58;99840.41;;;22.57
15709;BMP180;7954;51.914;8.420;2023-05-10T13:19:26;99844.44;;;22.39
15709;BMP180;7954;51.914;8.420;2023-05-10T13:21:56;99850.88;;;21.98
15709;BMP180;7954;51.914;8.420;2023-05-10T13:24:24;99860.09;;;21.67
15709;BMP180;7954;51.914;8.420;2023-05-10T13:26:53;99869.56;;;21.45
15709;BMP180;7954;51.914;8.420;2023-05-10T13:29:21;99881.41;;;21.23
15709;BMP180;7954;51.914;8.420;2023-05-10T13:31:50;99891.44;;;20.99
15709;BMP180;7954;51.914;8.420;2023-05-10T13:34:18;99897.34;;;20.70
15709;BMP180;7954;51.914;8.420;2023-05-10T13:36:48;99894.47;;;20.46
15709;BMP180;7954;51.914;8.420;2023-05-10T13:39:20;99889.31;;;20.60
15709;BMP180;7954;51.914;8.420;2023-05-10T13:41:48;99890.03;;;20.87
15709;BMP180;7954;51.914;8.420;2023-05-10T13:44:16;99882.03;;;21.13
15709;BMP180;7954;51.914;8.420;2023-05-10T13:46:44;99881.22;;;21.64
15709;BMP180;7954;51.914;8.420;2023-05-10T13:49:12;99869.03;;;22.22
15709;BMP180;7954;51.914;8.420;2023-05-10T13:51:42;99859.97;;;22.85
15709;BMP180;7954;51.914;8.420;2023-05-10T13:54:11;99869.41;;;23.39
15709;BMP180;7954;51.914;8.420;2023-05-10T13:56:41;99860.38;;;23.82
15709;BMP180;7954;51.914;8.420;2023-05-10T13:59:10;99854.78;;;24.18
15709;BMP180;7954;51.914;8.420;2023-05-10T14:01:40;99855.38;;;24.48
15709;BMP180;7954;51.914;8.420;2023-05-10T14:04:11;99850.09;;;24.63
15709;BMP180;7954;51.914;8.420;2023-05-10T14:06:39;99861.72;;;24.84
15709;BMP180;7954;51.914;8.420;2023-05-10T14:09:07;99851.84;;;24.97
15709;BMP180;7954;51.914;8.420;2023-05-10T14:11:36;99851.72;;;25.04
15709;BMP180;7954;51.914;8.420;2023-05-10T14:14:11;99849.59;;;25.00
15709;BMP180;7954;51.914;8.420;2023-05-10T14:16:42;99860.47;;;24.80
15709;BMP180;7954;51.914;8.420;2023-05-10T14:19:11;99857.66;;;24.54
15709;BMP180;7954;51.914;8.420;2023-05-10T14:21:39;99852.50;;;24.45
15709;BMP180;7954;51.914;8.420;2023-05-10T14:24:07;99859.16;;;24.43
15709;BMP180;7954;51.914;8.420;2023-05-10T14:26:36;99853.25;;;24.44
15709;BMP180;7954;51.914;8.420;2023-05-10T14:29:05;99858.50;;;24.37
15709;BMP180;7954;51.914;8.420;2023-05-10T14:31:37;99851.75;;;24.22
15709;BMP180;7954;51.914;8.420;2023-05-10T14:34:05;99855.88;;;24.20
15709;BMP180;7954;51.914;8.420;2023-05-10T14:36:33;99849.31;;;24.15
15709;BMP180;7954;51.914;8.420;2023-05-10T14:39:01;99848.38;;;24.47
15709;BMP180;7954;51.914;8.420;2023-05-10T14:41:29;99834.94;;;24.83
15709;BMP180;7954;51.914;8.420;2023-05-10T14:43:58;99828.31;;;25.02